KBUF Airport Information

Runway Information
Runway 05 Length 8102 ft width 150 ft
Elevation 679 ft Threshold 324 ft Heading 44
Runway 23 Length 8102 ft Width 150 ft
Elevation 721 ft Threshold 0 ft Heading 224
Runway 14 Length 7161 ft width 150 ft
Elevation 698 ft Threshold 320 ft Heading 127
Runway 32 Length 7161 ft Width 150 ft
Elevation 709 ft Threshold 720 ft Heading 307
Airport Frequencies
Type A/D Name APP/DEP Frequency 126.15 MHZ
Type ATIS Name ATIS Frequency 135.35 MHZ
Type CLD Name CLNC DEL Frequency 124.7 MHZ
Type GND Name GND Frequency 121.9 MHZ
Type RDO Name RDO Frequency 122.6 MHZ
Type TWR Name TWR Frequency 120.5 MHZ
Airport Navaids
Type NDB Name Klump Frequency 231 KHZ
Type VOR-DME Name Buffalo Frequency 116400 KHZ
Type NDB Name Plazz Frequency 204 KHZ
Airport Weather Information & NOTAM
ADDS - METARS form results

(0324 UTC 19 August 2018)
 
METAR text: KBUF 190254Z 00000KT 10SM OVC250 18/17 A2999 RMK AO2 SLP154 T01830167 51008 $
Conditions at: KBUF (BUFFALO/CHEEKTOW, NY, US) observed 0254 UTC 19 August 2018
Temperature: 18.3°C (65°F)
Dewpoint: 16.7°C (62°F) [RH = 90%]
Pressure (altimeter): 29.99 inches Hg (1015.7 mb)
[Sea-level pressure: 1015.4 mb]
Winds: calm
Visibility: 10 or more miles (16+ km)
Ceiling: 25000 feet AGL
Clouds: overcast cloud deck at 25000 feet AGL
Weather:
SOME DATA ABOVE MAY BE INACCURATE!!!
"$" is an indication the sensor requires maintenance